Time;durP1;ratioP1;P1;durP2;ratioP2;P2;SDS_P1;SDS_P2;PMS_P1;PMS_P2;Temp;Humidity;BMP_temperature;BMP_pressure;BME280_temperature;BME280_humidity;BME280_pressure;Samples;Min_cycle;Max_cycle;Signal;HPM_P1;HPM_P2
2022/07/12 05:31:45;;;;;;;;;6.00;6.00;;;;;22.57;53.77;101809.75;5066538;28;45502;-69
2022/07/12 05:34:11;;;;;;;;;8.00;8.00;;;;;22.81;53.02;101812.56;5049863;28;45532;-68
2022/07/12 05:36:36;;;;;;;;;7.33;7.33;;;;;23.19;52.34;101846.09;5049852;28;45375;-68
2022/07/12 05:39:02;;;;;;;;;8.00;8.00;;;;;23.34;51.99;101839.34;5033401;28;45449;-67
2022/07/12 05:41:28;;;;;;;;;9.33;8.00;;;;;23.63;51.05;101841.03;5029095;28;45774;-71
2022/07/12 05:43:53;;;;;;;;;6.67;6.67;;;;;23.63;50.79;101816.06;5030644;28;45577;-69
2022/07/12 05:46:22;;;;;;;;;7.00;7.00;;;;;23.99;50.62;101842.44;5018539;28;45576;-73
2022/07/12 05:48:48;;;;;;;;;10.67;8.67;;;;;24.07;50.23;101838.56;5013608;28;46017;-70
2022/07/12 05:53:58;;;;;;;;;7.67;6.33;;;;;23.91;49.20;101787.41;5043498;28;45295;-72
2022/07/12 05:56:24;;;;;;;;;10.33;7.67;;;;;24.22;49.34;101846.97;5043099;28;45624;-70
2022/07/12 05:58:50;;;;;;;;;8.00;8.00;;;;;24.12;49.34;101841.06;5049397;28;45668;-70
2022/07/12 06:01:16;;;;;;;;;7.00;7.00;;;;;23.86;49.91;101823.31;5043422;28;46323;-70
2022/07/12 06:03:43;;;;;;;;;7.33;7.33;;;;;24.02;49.04;101851.25;5044020;28;45370;-72
2022/07/12 06:06:21;;;;;;;;;6.00;6.00;;;;;24.10;49.73;101857.19;5043421;28;46033;-72
2022/07/12 06:08:46;;;;;;;;;7.33;7.00;;;;;24.19;49.77;101849.75;5042505;28;45993;-69
2022/07/12 06:11:12;;;;;;;;;7.00;7.00;;;;;24.10;49.18;101819.72;5043059;28;46025;-71
2022/07/12 06:13:38;;;;;;;;;8.67;8.33;;;;;24.19;49.34;101837.25;5043166;28;45423;-71
2022/07/12 06:16:11;;;;;;;;;7.33;7.33;;;;;24.29;49.36;101859.19;5045658;28;45426;-72
2022/07/12 06:18:37;;;;;;;;;7.00;7.00;;;;;24.10;49.01;101797.44;5045177;28;45599;-73
2022/07/12 06:21:03;;;;;;;;;9.33;9.33;;;;;24.48;48.46;101862.06;5046966;28;45515;-73
2022/07/12 06:23:29;;;;;;;;;8.33;8.33;;;;;24.55;48.45;101860.91;5062870;28;45355;-72
2022/07/12 06:25:55;;;;;;;;;7.00;7.00;;;;;24.78;48.18;101857.31;5046943;28;45465;-72
2022/07/12 06:28:21;;;;;;;;;7.33;6.33;;;;;24.78;48.14;101868.03;5047341;28;45400;-72
2022/07/12 06:30:56;;;;;;;;;6.00;6.00;;;;;24.85;47.75;101860.63;5059088;28;46223;-72
2022/07/12 06:33:22;;;;;;;;;8.67;7.33;;;;;24.98;47.43;101860.06;5063297;27;46475;-72
2022/07/12 06:35:47;;;;;;;;;8.00;7.00;;;;;25.12;47.41;101869.34;5064013;28;46347;-72
2022/07/12 06:38:13;;;;;;;;;9.67;9.00;;;;;25.01;47.17;101853.72;5063752;28;45788;-71
2022/07/12 06:40:39;;;;;;;;;7.33;7.00;;;;;25.05;46.97;101867.84;5064074;28;45945;-72
2022/07/12 06:43:12;;;;;;;;;9.00;9.00;;;;;24.91;46.87;101833.56;5050538;28;45490;-69
2022/07/12 06:45:39;;;;;;;;;11.00;8.00;;;;;25.13;47.39;101866.63;5051409;28;45684;-69
2022/07/12 06:48:05;;;;;;;;;9.00;9.00;;;;;25.10;47.18;101868.53;5050859;28;45411;-71
2022/07/12 06:50:31;;;;;;;;;7.33;7.33;;;;;25.12;47.71;101870.22;5049891;28;45479;-70
2022/07/12 06:52:57;;;;;;;;;12.00;9.33;;;;;24.82;47.71;101842.88;5048068;28;45956;-72
2022/07/12 06:55:23;;;;;;;;;8.67;8.33;;;;;25.00;47.40;101865.34;5038163;28;45517;-72
2022/07/12 06:57:49;;;;;;;;;9.67;8.00;;;;;25.07;46.84;101855.28;5016927;28;45477;-70
2022/07/12 07:00:15;;;;;;;;;7.33;7.00;;;;;25.17;47.40;101867.34;5047724;28;45395;-69
2022/07/12 07:02:40;;;;;;;;;8.67;8.67;;;;;25.17;47.10;101868.25;5038713;28;45516;-70
2022/07/12 07:05:06;;;;;;;;;11.00;8.00;;;;;25.39;47.09;101878.09;5035570;28;45438;-70
2022/07/12 07:07:33;;;;;;;;;9.00;8.00;;;;;25.70;46.32;101876.75;5034945;28;45503;-72
2022/07/12 07:09:58;;;;;;;;;8.00;8.00;;;;;25.91;46.08;101878.56;5034251;28;46093;-72
2022/07/12 07:12:24;;;;;;;;;9.00;7.67;;;;;25.98;44.99;101869.31;5035377;28;45407;-71
2022/07/12 07:14:50;;;;;;;;;9.33;8.00;;;;;25.86;45.77;101852.81;5035769;28;45367;-71
2022/07/12 07:17:17;;;;;;;;;8.33;8.33;;;;;25.80;44.90;101836.06;5035170;28;45532;-71
2022/07/12 07:19:44;;;;;;;;;11.67;10.67;;;;;26.14;45.55;101877.53;5017318;28;47282;-71
2022/07/12 07:22:10;;;;;;;;;10.00;8.67;;;;;26.10;45.03;101854.47;5035070;28;45407;-70
2022/07/12 07:24:36;;;;;;;;;8.67;8.00;;;;;26.25;45.27;101860.06;5034932;28;45619;-72
2022/07/12 07:27:02;;;;;;;;;14.00;11.67;;;;;26.33;44.74;101868.63;5035039;28;45355;-71
2022/07/12 07:32:11;;;;;;;;;5.33;5.33;;;;;26.45;44.81;101878.78;5035038;28;45586;-73
2022/07/12 07:34:37;;;;;;;;;9.33;9.00;;;;;26.56;44.20;101883.72;5036204;28;45293;-70
2022/07/12 07:37:03;;;;;;;;;9.00;8.67;;;;;26.69;44.59;101889.38;5039562;28;45424;-71
2022/07/12 07:39:32;;;;;;;;;15.67;10.00;;;;;26.86;43.73;101881.34;5029474;28;47015;-72
2022/07/12 07:41:57;;;;;;;;;13.67;10.33;;;;;26.89;44.09;101885.75;5034731;28;45435;-70
2022/07/12 07:44:23;;;;;;;;;15.67;11.00;;;;;27.02;43.58;101885.03;5034507;28;45462;-72
2022/07/12 07:46:48;;;;;;;;;18.00;13.33;;;;;26.90;43.13;101855.22;5046156;28;45668;-72
2022/07/12 07:49:14;;;;;;;;;15.00;14.00;;;;;27.04;42.92;101883.16;5036302;28;45734;-71
2022/07/12 07:51:49;;;;;;;;;12.00;10.33;;;;;27.10;42.63;101881.09;5047257;28;45496;-71
2022/07/12 07:54:19;;;;;;;;;10.33;10.33;;;;;27.15;42.94;101877.25;5053817;28;45503;-72
2022/07/12 07:56:44;;;;;;;;;9.50;9.50;;;;;27.02;43.16;101860.84;5055249;28;45583;-71
2022/07/12 07:59:10;;;;;;;;;10.00;9.00;;;;;27.15;42.99;101879.94;5058754;28;45299;-70
2022/07/12 08:01:45;;;;;;;;;9.67;9.67;;;;;27.01;42.68;101863.63;5058988;28;45381;-70
2022/07/12 08:04:18;;;;;;;;;10.00;10.00;;;;;27.22;43.12;101894.88;5058680;28;45446;-70
2022/07/12 08:06:44;;;;;;;;;9.00;9.00;;;;;27.24;42.62;101890.28;5037690;28;45477;-71
2022/07/12 08:09:10;;;;;;;;;9.67;9.67;;;;;27.15;42.69;101876.41;5053876;28;47242;-71
2022/07/12 08:11:36;;;;;;;;;8.50;7.00;;;;;27.24;42.43;101876.84;5055297;28;45293;-71
2022/07/12 08:14:06;;;;;;;;;8.67;8.67;;;;;27.39;41.86;101879.72;5058972;28;45481;-71
2022/07/12 08:16:33;;;;;;;;;10.00;9.00;;;;;27.00;42.32;101808.09;5059441;28;45232;-73
2022/07/12 08:18:59;;;;;;;;;8.00;8.00;;;;;27.44;42.26;101878.50;5057321;28;46595;-72
2022/07/12 08:21:25;;;;;;;;;12.00;10.33;;;;;27.54;42.66;101894.19;5055294;28;45332;-71
2022/07/12 08:23:50;;;;;;;;;10.33;9.33;;;;;27.32;42.37;101871.06;5054646;28;45518;-71
2022/07/12 08:26:16;;;;;;;;;9.33;8.00;;;;;27.52;42.61;101894.25;5054425;28;45449;-70
2022/07/12 08:28:49;;;;;;;;;10.33;9.33;;;;;27.50;41.98;101888.06;5055554;28;45452;-73
2022/07/12 08:31:23;;;;;;;;;9.33;9.33;;;;;27.53;41.93;101895.16;5055781;28;45429;-70
2022/07/12 08:33:49;;;;;;;;;10.00;10.00;;;;;27.60;41.69;101899.28;5054066;28;45671;-70
2022/07/12 08:36:15;;;;;;;;;8.25;7.25;;;;;27.65;42.02;101894.50;5034191;28;45461;-68
2022/07/12 08:38:44;;;;;;;;;9.75;9.00;;;;;27.64;41.42;101873.91;5054229;28;45445;-69
2022/07/12 08:41:14;;;;;;;;;11.75;10.00;;;;;27.55;41.56;101869.00;5054165;28;45427;-69
2022/07/12 08:43:40;;;;;;;;;9.00;9.00;;;;;27.66;41.01;101866.63;5054456;28;45341;-70
2022/07/12 08:46:07;;;;;;;;;8.75;7.00;;;;;27.91;40.94;101885.97;5056483;28;45396;-69
2022/07/12 08:48:36;;;;;;;;;7.00;7.00;;;;;28.06;40.57;101886.13;5057630;28;45462;-71
2022/07/12 08:51:05;;;;;;;;;9.25;8.00;;;;;28.14;39.96;101886.56;5045282;28;45239;-72
2022/07/12 08:53:31;;;;;;;;;8.25;8.00;;;;;28.15;40.54;101868.59;5056912;28;45472;-69
2022/07/12 08:55:57;;;;;;;;;9.50;7.75;;;;;28.23;39.89;101877.97;5053549;28;45785;-71
2022/07/12 08:58:23;;;;;;;;;9.50;8.25;;;;;28.20;39.30;101872.78;5053800;28;45373;-72
2022/07/12 09:00:48;;;;;;;;;8.75;8.75;;;;;28.10;39.31;101877.78;5053441;28;45394;-72
2022/07/12 09:03:14;;;;;;;;;7.75;7.75;;;;;28.10;39.78;101875.09;5035868;28;45647;-70
2022/07/12 09:05:49;;;;;;;;;7.25;7.25;;;;;28.21;39.42;101877.19;5033590;28;45568;-69
2022/07/12 09:08:14;;;;;;;;;7.25;7.00;;;;;28.38;39.18;101884.38;5053978;28;45977;-71
2022/07/12 09:10:49;;;;;;;;;7.00;7.00;;;;;28.42;38.71;101882.38;5053680;28;45288;-69
2022/07/12 09:13:22;;;;;;;;;6.25;6.25;;;;;28.28;39.14;101867.81;5053661;28;45648;-72
2022/07/12 09:15:47;;;;;;;;;7.75;7.50;;;;;28.13;38.97;101856.06;5051746;28;45866;-69
2022/07/12 09:18:15;;;;;;;;;6.25;6.00;;;;;28.44;38.79;101878.63;5052786;28;45941;-69
2022/07/12 09:20:43;;;;;;;;;6.25;5.00;;;;;28.59;38.87;101876.94;5053525;28;45370;-71
2022/07/12 09:23:11;;;;;;;;;6.75;6.00;;;;;28.72;38.27;101887.91;5053681;28;45767;-70
2022/07/12 09:25:44;;;;;;;;;6.25;6.25;;;;;28.46;37.72;101840.88;5052560;28;45476;-72
2022/07/12 09:28:10;;;;;;;;;5.75;5.75;;;;;28.57;37.80;101842.94;5035210;28;48285;-70
2022/07/12 09:30:38;;;;;;;;;5.75;5.50;;;;;28.79;37.67;101880.38;5056156;28;45477;-71
2022/07/12 09:36:06;;;;;;;;;7.00;5.00;;;;;28.74;37.82;101881.47;5053521;28;45717;-71
2022/07/12 09:38:37;;;;;;;;;5.25;5.25;;;;;28.85;37.13;101885.38;5035175;28;46518;-72
2022/07/12 09:41:03;;;;;;;;;7.00;6.00;;;;;28.90;36.90;101883.28;5053071;28;45501;-73
2022/07/12 09:43:29;;;;;;;;;5.75;5.25;;;;;28.88;36.72;101880.69;5053024;28;45492;-72
2022/07/12 09:45:56;;;;;;;;;6.00;6.00;;;;;28.96;36.39;101886.50;5054301;28;45567;-71
2022/07/12 09:48:22;;;;;;;;;5.75;5.75;;;;;28.97;36.21;101876.59;5054188;28;46145;-72
2022/07/12 09:50:51;;;;;;;;;5.00;5.00;;;;;29.05;36.14;101881.56;5042401;28;45753;-71
2022/07/12 09:53:33;;;;;;;;;5.50;5.50;;;;;29.17;35.55;101883.56;5057478;28;45406;-71
2022/07/12 09:56:03;;;;;;;;;8.00;8.00;;;;;29.15;35.65;101867.47;5056157;28;45709;-73
2022/07/12 09:58:47;;;;;;;;;6.50;6.00;;;;;29.28;35.80;101881.13;5040207;28;46705;-71
2022/07/12 10:01:15;;;;;;;;;5.75;5.00;;;;;29.38;35.47;101886.84;5048915;28;45252;-72
2022/07/12 10:03:42;;;;;;;;;8.00;6.00;;;;;29.45;35.32;101885.53;5062191;28;45614;-72
2022/07/12 10:06:09;;;;;;;;;6.00;5.00;;;;;29.35;35.37;101863.63;5061551;28;45507;-70
2022/07/12 10:08:35;;;;;;;;;6.00;5.00;;;;;29.52;35.06;101883.31;5058110;28;45417;-71
2022/07/12 10:11:01;;;;;;;;;7.00;6.00;;;;;29.59;35.17;101890.09;5052597;28;45438;-71
2022/07/12 10:13:28;;;;;;;;;6.00;6.00;;;;;29.50;33.60;101877.16;5052962;28;45902;-71
2022/07/12 10:16:01;;;;;;;;;8.00;6.25;;;;;29.56;33.20;101888.44;5054531;28;45584;-72
2022/07/12 10:18:28;;;;;;;;;6.25;6.25;;;;;29.47;33.93;101886.31;5060211;28;45412;-72
2022/07/12 10:20:54;;;;;;;;;6.75;5.50;;;;;29.49;33.36;101897.00;5037980;28;45623;-72
2022/07/12 10:23:25;;;;;;;;;5.00;5.00;;;;;29.29;33.32;101895.47;5056039;28;45214;-71
2022/07/12 10:25:51;;;;;;;;;6.75;6.25;;;;;29.22;33.50;101894.09;5056472;28;45365;-71
2022/07/12 10:28:17;;;;;;;;;6.00;6.00;;;;;29.33;33.65;101888.97;5050348;28;46530;-72
2022/07/12 10:30:50;;;;;;;;;6.00;6.00;;;;;29.44;32.37;101877.50;5048360;28;45888;-69
2022/07/12 10:33:17;;;;;;;;;5.75;5.75;;;;;29.63;32.55;101883.53;5056103;28;45550;-73
2022/07/12 10:36:05;;;;;;;;;7.50;7.50;;;;;29.73;32.71;101881.19;5056161;28;45660;-73
2022/07/12 10:38:32;;;;;;;;;5.00;5.00;;;;;29.86;32.73;101884.88;5055915;28;45842;-72
2022/07/12 10:41:21;;;;;;;;;4.25;4.25;;;;;29.96;32.10;101877.06;5056067;28;45458;-71
2022/07/12 10:44:06;;;;;;;;;5.00;5.00;;;;;30.05;31.63;101883.75;5037850;28;45539;-72
2022/07/12 10:46:37;;;;;;;;;6.50;6.00;;;;;30.11;30.44;101880.66;5036397;28;45421;-70
2022/07/12 10:49:25;;;;;;;;;7.75;7.00;;;;;30.09;30.00;101869.97;5051089;28;46116;-71
2022/07/12 10:52:09;;;;;;;;;5.75;5.75;;;;;30.23;30.02;101869.06;5020835;28;45720;-71
2022/07/12 10:54:36;;;;;;;;;3.50;3.00;;;;;30.25;31.14;101880.66;5055986;28;45616;-74
2022/07/12 10:57:01;;;;;;;;;6.25;5.75;;;;;30.24;31.51;101854.59;5055730;28;45984;-73
2022/07/12 10:59:30;;;;;;;;;6.00;6.00;;;;;30.39;30.72;101869.84;5058167;28;46611;-73
2022/07/12 11:01:57;;;;;;;;;7.50;7.50;;;;;30.50;31.07;101874.59;5042022;28;45425;-73
2022/07/12 11:04:22;;;;;;;;;5.00;5.00;;;;;30.54;30.66;101876.13;5054757;28;45595;-71
2022/07/12 11:06:49;;;;;;;;;7.00;6.00;;;;;30.62;30.12;101873.78;5055250;28;45727;-71
2022/07/12 11:09:17;;;;;;;;;7.50;6.00;;;;;30.69;30.50;101878.81;5054433;28;45383;-72
2022/07/12 11:11:48;;;;;;;;;7.50;7.50;;;;;30.68;29.98;101867.09;5055245;28;45312;-69
2022/07/12 11:14:22;;;;;;;;;5.00;5.00;;;;;30.81;29.28;101872.59;5055034;28;45299;-72
2022/07/12 11:16:49;;;;;;;;;5.00;5.00;;;;;30.90;29.19;101871.19;5058767;28;45390;-71
2022/07/12 11:19:15;;;;;;;;;8.00;6.75;;;;;30.91;29.72;101868.34;5054633;28;45460;-70
2022/07/12 11:21:45;;;;;;;;;6.00;5.75;;;;;31.01;29.33;101863.19;5038327;28;45436;-71
2022/07/12 11:24:18;;;;;;;;;9.00;7.00;;;;;31.10;29.65;101864.41;5059446;28;45299;-69
2022/07/12 11:26:44;;;;;;;;;6.00;5.50;;;;;31.15;29.58;101868.53;5056393;28;45323;-70
2022/07/12 11:29:11;;;;;;;;;5.25;5.25;;;;;31.27;29.41;101853.31;5036927;28;45672;-71
2022/07/12 11:31:37;;;;;;;;;6.25;5.75;;;;;31.42;29.25;101863.16;5054681;28;45477;-71
2022/07/12 11:34:04;;;;;;;;;6.75;6.00;;;;;31.43;28.75;101845.91;5056039;28;45416;-72
2022/07/12 11:36:31;;;;;;;;;6.00;6.00;;;;;31.52;28.56;101852.56;5055643;28;45423;-71
2022/07/12 11:38:56;;;;;;;;;6.25;6.25;;;;;31.52;28.69;101866.09;5054331;28;45501;-71
2022/07/12 11:41:24;;;;;;;;;8.50;8.50;;;;;31.44;29.29;101872.03;5054851;28;45596;-72
2022/07/12 11:43:50;;;;;;;;;8.00;8.00;;;;;31.41;28.67;101865.94;5054680;28;45455;-71
2022/07/12 11:46:16;;;;;;;;;7.75;7.25;;;;;31.41;28.95;101858.69;5058790;28;45648;-71
2022/07/12 11:48:43;;;;;;;;;8.25;8.25;;;;;31.45;28.65;101857.50;5052530;28;45422;-73
2022/07/12 11:51:13;;;;;;;;;9.25;8.75;;;;;31.63;28.28;101851.78;5042534;28;45553;-72
2022/07/12 11:53:40;;;;;;;;;8.25;7.25;;;;;31.71;27.82;101849.44;5054763;28;45427;-70
2022/07/12 11:56:07;;;;;;;;;6.75;6.75;;;;;31.74;28.35;101834.81;5055228;28;45438;-70
2022/07/12 11:58:37;;;;;;;;;8.00;8.00;;;;;31.93;28.34;101847.91;5057654;28;45448;-72
2022/07/12 12:01:03;;;;;;;;;9.50;8.25;;;;;31.98;27.98;101837.66;5039957;28;45336;-71
2022/07/12 12:03:30;;;;;;;;;8.00;6.75;;;;;31.93;28.10;101818.97;5036565;28;45367;-71
2022/07/12 12:05:57;;;;;;;;;7.75;7.50;;;;;32.05;27.88;101833.53;5055528;28;45545;-71
2022/07/12 12:08:23;;;;;;;;;6.50;5.00;;;;;31.84;27.11;101831.31;5051680;28;47175;-70
2022/07/12 12:10:59;;;;;;;;;6.60;5.60;;;;;31.85;26.72;101835.78;5036233;28;45474;-71
2022/07/12 12:13:27;;;;;;;;;5.50;5.50;;;;;31.85;27.24;101815.97;5047013;28;45380;-71
2022/07/12 12:16:03;;;;;;;;;7.00;7.00;;;;;32.02;28.01;101821.06;5054861;28;45673;-70
2022/07/12 12:18:35;;;;;;;;;7.00;6.00;;;;;32.07;26.87;101815.31;5025734;28;47588;-70
2022/07/12 12:21:03;;;;;;;;;5.00;5.00;;;;;31.95;26.73;101806.22;5032463;28;45596;-70
2022/07/12 12:23:30;;;;;;;;;7.00;7.00;;;;;32.03;26.96;101803.81;5022381;28;45264;-72
2022/07/12 12:26:12;;;;;;;;;5.50;5.50;;;;;32.30;27.01;101824.50;5036350;28;45524;-72
2022/07/12 12:28:46;;;;;;;;;6.25;6.25;;;;;32.40;26.07;101820.13;5048512;28;46189;-72
2022/07/12 12:31:13;;;;;;;;;6.60;6.40;;;;;32.35;26.84;101794.34;5021002;28;45519;-72
2022/07/12 12:33:47;;;;;;;;;7.25;7.25;;;;;32.43;25.90;101811.75;5044093;28;45590;-71
2022/07/12 12:36:24;;;;;;;;;8.50;7.00;;;;;32.52;25.97;101821.09;5055277;28;45726;-72
2022/07/12 12:38:52;;;;;;;;;10.75;9.25;;;;;32.51;26.93;101809.38;5034381;28;45351;-70
2022/07/12 12:41:22;;;;;;;;;6.60;6.20;;;;;32.60;26.24;101804.25;5053268;28;45638;-71
2022/07/12 12:43:48;;;;;;;;;8.00;7.75;;;;;32.58;25.61;101787.22;5053276;28;45492;-71
2022/07/12 12:46:14;;;;;;;;;6.25;6.25;;;;;32.83;25.91;101810.66;5054555;28;45395;-70
2022/07/12 12:48:47;;;;;;;;;6.25;6.25;;;;;32.98;26.17;101795.06;5052732;28;45547;-72
2022/07/12 12:51:13;;;;;;;;;5.60;5.60;;;;;33.12;25.94;101800.34;5016353;28;45973;-71
2022/07/12 12:53:40;;;;;;;;;7.50;6.25;;;;;33.19;24.84;101796.16;5049041;28;45269;-70
2022/07/12 12:56:15;;;;;;;;;11.50;7.25;;;;;33.18;25.21;101789.00;5056902;28;45303;-72
2022/07/12 12:58:42;;;;;;;;;6.75;6.75;;;;;33.22;25.15;101784.19;5054845;28;45695;-73
2022/07/12 13:01:09;;;;;;;;;5.40;4.20;;;;;33.30;25.47;101777.19;5054823;28;45418;-74
2022/07/12 13:03:35;;;;;;;;;7.25;7.25;;;;;33.35;25.24;101765.97;5054767;28;45585;-72
2022/07/12 13:06:02;;;;;;;;;5.50;5.50;;;;;33.64;25.09;101795.44;5055707;28;45401;-72
2022/07/12 13:08:27;;;;;;;;;7.25;7.25;;;;;33.64;24.95;101774.56;5054311;28;45554;-72
2022/07/12 13:13:38;;;;;;;;;6.20;6.20;;;;;33.87;23.86;101789.03;5056991;28;45465;-72
2022/07/12 13:16:05;;;;;;;;;6.00;6.00;;;;;33.70;22.88;101767.78;5058012;28;45650;-68
2022/07/12 13:18:31;;;;;;;;;4.00;4.00;;;;;33.58;22.48;101745.19;5060170;28;45585;-71
2022/07/12 13:20:57;;;;;;;;;6.80;4.20;;;;;33.46;21.56;101779.59;5056999;28;45408;-70
2022/07/12 13:23:32;;;;;;;;;3.00;3.00;;;;;33.13;22.18;101750.50;5036236;28;45508;-72
2022/07/12 13:25:57;;;;;;;;;4.00;4.00;;;;;33.45;21.86;101782.41;5056042;28;45377;-72
2022/07/12 13:28:23;;;;;;;;;5.25;4.25;;;;;33.54;22.26;101768.09;5056607;28;45841;-72
2022/07/12 13:30:49;;;;;;;;;4.75;4.00;;;;;33.51;22.50;101768.34;5034372;28;45772;-74
2022/07/12 13:33:18;;;;;;;;;5.00;5.00;;;;;33.50;22.17;101769.31;5054599;28;45417;-70
2022/07/12 13:35:44;;;;;;;;;4.50;4.50;;;;;33.47;22.42;101766.88;5043346;28;45529;-71
2022/07/12 13:38:10;;;;;;;;;7.00;5.00;;;;;33.38;22.62;101754.88;5053334;28;46226;-72
2022/07/12 13:40:36;;;;;;;;;4.00;4.00;;;;;33.27;22.03;101747.59;5033102;28;45465;-72
2022/07/12 13:43:03;;;;;;;;;4.25;3.50;;;;;33.41;22.40;101767.34;5046436;28;45636;-72
2022/07/12 13:45:29;;;;;;;;;4.00;4.00;;;;;33.52;22.50;101768.22;5054678;28;45603;-73
2022/07/12 13:47:55;;;;;;;;;3.50;3.50;;;;;33.69;22.35;101774.19;5036631;28;45621;-72
2022/07/12 13:50:22;;;;;;;;;5.00;5.00;;;;;33.72;21.88;101768.50;5039814;28;45307;-71
2022/07/12 13:52:48;;;;;;;;;3.60;3.60;;;;;33.69;21.60;101760.63;5055725;28;45426;-72
2022/07/12 13:55:17;;;;;;;;;3.50;3.50;;;;;33.60;21.51;101731.47;5036587;28;45363;-70
2022/07/12 13:57:43;;;;;;;;;3.00;3.00;;;;;33.75;21.47;101743.84;5042647;28;46135;-68
2022/07/12 14:00:13;;;;;;;;;5.60;4.80;;;;;33.97;21.10;101765.56;5057099;28;45661;-72
2022/07/12 14:02:40;;;;;;;;;4.60;4.00;;;;;33.96;21.87;101761.13;5057202;28;45633;-71
2022/07/12 14:05:08;;;;;;;;;5.75;4.00;;;;;34.09;21.19;101765.56;5056869;28;45648;-72
2022/07/12 14:07:34;;;;;;;;;4.00;4.00;;;;;34.09;21.51;101765.56;5037792;28;46725;-72
2022/07/12 14:10:00;;;;;;;;;4.00;2.50;;;;;34.19;21.64;101764.72;5056884;28;45626;-71
2022/07/12 14:12:26;;;;;;;;;4.00;4.00;;;;;34.11;20.26;101731.84;5056697;28;45758;-71
2022/07/12 14:17:50;;;;;;;;;4.00;4.00;;;;;34.36;20.15;101757.00;5056649;28;45460;-70
2022/07/12 14:20:21;;;;;;;;;3.00;3.00;;;;;34.33;21.21;101736.34;5038386;28;45448;-73
2022/07/12 14:22:53;;;;;;;;;4.20;4.20;;;;;34.38;20.90;101725.97;5056892;28;45595;-70
2022/07/12 14:25:20;;;;;;;;;3.75;3.75;;;;;34.42;20.16;101740.19;5057260;28;45478;-73
2022/07/12 14:27:45;;;;;;;;;5.00;4.40;;;;;34.34;20.00;101750.84;5054641;28;46581;-70
2022/07/12 14:30:16;;;;;;;;;3.75;3.50;;;;;34.36;19.80;101747.00;5056384;28;45716;-70
2022/07/12 14:32:42;;;;;;;;;4.60;3.20;;;;;34.46;20.52;101746.25;5059915;28;45243;-70
2022/07/12 14:35:09;;;;;;;;;3.50;3.50;;;;;34.43;19.39;101744.59;5056777;28;45617;-68
2022/07/12 14:37:36;;;;;;;;;4.00;4.00;;;;;34.51;19.68;101750.28;5056303;28;45822;-72
2022/07/12 14:40:03;;;;;;;;;4.00;4.00;;;;;34.60;19.24;101755.00;5056122;28;45477;-70
2022/07/12 14:42:29;;;;;;;;;3.20;3.20;;;;;34.57;19.45;101743.47;5056440;28;45502;-70
2022/07/12 14:44:55;;;;;;;;;4.00;4.00;;;;;34.42;20.02;101716.56;5058186;28;45561;-71
2022/07/12 14:47:22;;;;;;;;;4.60;3.40;;;;;34.50;19.70;101748.53;5059056;28;46760;-72
2022/07/12 14:49:48;;;;;;;;;5.40;4.80;;;;;34.35;19.97;101741.69;5047627;28;45354;-72
2022/07/12 14:52:15;;;;;;;;;4.25;4.00;;;;;34.15;19.62;101719.72;5052754;28;45388;-69
2022/07/12 14:54:40;;;;;;;;;3.80;3.80;;;;;34.08;19.08;101707.59;5058647;28;45833;-69
2022/07/12 14:57:06;;;;;;;;;3.50;3.50;;;;;34.19;20.03;101718.50;5059722;28;45653;-69
2022/07/12 14:59:31;;;;;;;;;3.00;3.00;;;;;34.33;19.74;101730.91;5059850;28;45387;-72
2022/07/12 15:01:59;;;;;;;;;5.25;3.00;;;;;34.28;19.67;101707.84;5055623;28;45384;-72
2022/07/12 15:04:25;;;;;;;;;3.00;3.00;;;;;34.40;19.84;101717.69;5055201;28;45418;-69
2022/07/12 15:06:50;;;;;;;;;4.25;2.75;;;;;34.58;19.62;101726.16;5037507;28;47562;-71
2022/07/12 15:09:16;;;;;;;;;4.75;4.75;;;;;34.69;19.23;101717.97;5055587;28;45415;-73
2022/07/12 15:11:41;;;;;;;;;4.25;4.25;;;;;34.70;19.36;101697.94;5056050;28;45825;-72
2022/07/12 15:14:07;;;;;;;;;4.25;4.00;;;;;34.75;19.72;101692.09;5055698;28;45384;-71
2022/07/12 15:16:33;;;;;;;;;3.50;3.50;;;;;34.98;19.17;101701.00;5055563;28;46110;-70
2022/07/12 15:18:59;;;;;;;;;3.50;3.50;;;;;35.13;19.09;101709.72;5054957;28;45404;-72
2022/07/12 15:21:25;;;;;;;;;4.00;4.00;;;;;35.27;18.98;101719.44;5055535;28;45470;-72
2022/07/12 15:23:50;;;;;;;;;4.00;4.00;;;;;35.32;18.93;101708.97;5055558;28;45610;-71
2022/07/12 15:26:16;;;;;;;;;4.75;3.00;;;;;35.24;18.27;101706.94;5054932;28;46055;-71
2022/07/12 15:28:53;;;;;;;;;3.00;3.00;;;;;35.17;18.56;101695.72;5055227;28;45602;-71
2022/07/12 15:31:18;;;;;;;;;3.20;3.20;;;;;35.20;18.33;101705.47;5054900;28;45458;-71
2022/07/12 15:33:44;;;;;;;;;3.00;3.00;;;;;35.15;17.82;101696.84;5056700;28;45435;-72
2022/07/12 15:36:10;;;;;;;;;4.00;4.00;;;;;35.11;18.66;101706.28;5056858;28;45533;-70
2022/07/12 15:38:36;;;;;;;;;4.80;3.20;;;;;34.94;18.42;101683.22;5054553;28;45943;-70
2022/07/12 15:41:04;;;;;;;;;5.50;4.00;;;;;34.91;18.48;101697.09;5055052;28;45506;-69
2022/07/12 15:43:30;;;;;;;;;4.60;4.60;;;;;34.70;17.97;101683.47;5054852;28;45469;-71
2022/07/12 15:45:56;;;;;;;;;5.00;5.00;;;;;34.69;17.70;101698.91;5055004;28;46140;-70
2022/07/12 15:48:21;;;;;;;;;3.75;3.25;;;;;34.39;17.67;101661.56;5054370;28;45987;-71
2022/07/12 15:50:47;;;;;;;;;2.50;2.50;;;;;34.58;17.83;101685.34;5041044;28;45437;-69
2022/07/12 15:53:27;;;;;;;;;3.00;3.00;;;;;34.54;17.58;101678.44;5055093;28;45733;-70
2022/07/12 15:55:57;;;;;;;;;3.20;3.20;;;;;34.71;18.10;101691.50;5054968;28;46087;-71
2022/07/12 15:58:36;;;;;;;;;2.20;2.20;;;;;34.78;18.00;101691.81;5054718;28;45925;-69
2022/07/12 16:01:09;;;;;;;;;3.00;3.00;;;;;34.83;18.24;101684.13;5054476;28;45334;-71
2022/07/12 16:03:35;;;;;;;;;2.80;2.00;;;;;34.95;17.71;101687.66;5055184;28;45360;-69
2022/07/12 16:06:03;;;;;;;;;3.50;3.00;;;;;34.67;18.35;101632.91;5054427;28;46201;-70
2022/07/12 16:08:30;;;;;;;;;4.40;4.40;;;;;34.95;17.92;101683.06;5053567;28;45446;-68
2022/07/12 16:10:56;;;;;;;;;4.00;4.00;;;;;34.83;17.71;101692.28;5055623;28;45449;-69
2022/07/12 16:13:21;;;;;;;;;2.00;2.00;;;;;34.55;17.93;101680.16;5059474;28;45541;-69
2022/07/12 16:15:47;;;;;;;;;3.75;3.75;;;;;34.56;17.83;101684.63;5056462;28;46151;-69
2022/07/12 16:18:13;;;;;;;;;4.50;4.00;;;;;34.61;18.03;101685.13;5056358;28;45804;-70
2022/07/12 16:20:39;;;;;;;;;5.00;4.00;;;;;34.49;18.19;101684.25;5054919;28;45500;-70
2022/07/12 16:23:08;;;;;;;;;3.00;3.00;;;;;34.22;18.23;101641.25;5058906;28;45564;-70
2022/07/12 16:25:34;;;;;;;;;3.80;2.40;;;;;34.44;18.69;101688.38;5057636;28;45427;-70
2022/07/12 16:28:00;;;;;;;;;3.50;3.00;;;;;34.40;18.31;101677.75;5055489;28;45470;-70
2022/07/12 16:30:26;;;;;;;;;4.20;3.40;;;;;34.41;18.04;101684.91;5055930;28;45866;-72
2022/07/12 16:32:52;;;;;;;;;3.00;3.00;;;;;34.25;17.33;101672.75;5055692;28;45827;-69
2022/07/12 16:35:18;;;;;;;;;2.75;2.00;;;;;34.15;17.56;101683.53;5057023;28;45969;-73
2022/07/12 16:37:45;;;;;;;;;3.50;3.50;;;;;34.00;17.66;101651.16;5055122;28;45969;-70
2022/07/12 16:40:11;;;;;;;;;3.60;3.60;;;;;34.21;17.62;101678.41;5057541;28;45471;-71
2022/07/12 16:42:37;;;;;;;;;4.25;4.25;;;;;34.12;17.85;101662.03;5058832;28;45268;-71
2022/07/12 16:45:03;;;;;;;;;4.00;4.00;;;;;34.18;18.13;101673.25;5060119;28;45457;-70
2022/07/12 16:47:29;;;;;;;;;3.60;3.20;;;;;34.07;18.53;101667.81;5061486;28;45442;-72
2022/07/12 16:49:55;;;;;;;;;6.00;4.50;;;;;34.16;18.14;101672.50;5046392;28;45457;-69
2022/07/12 16:52:20;;;;;;;;;5.25;4.00;;;;;34.10;17.63;101664.00;5056198;28;45547;-70
2022/07/12 16:54:46;;;;;;;;;5.00;5.00;;;;;34.04;17.48;101664.50;5053939;28;45469;-68
2022/07/12 16:57:11;;;;;;;;;5.00;4.00;;;;;33.88;17.87;101652.16;5054408;28;45567;-70
2022/07/12 16:59:37;;;;;;;;;3.00;3.00;;;;;33.99;17.92;101667.59;5051045;28;45413;-70
2022/07/12 17:02:04;;;;;;;;;5.00;3.25;;;;;33.94;17.77;101665.25;5039378;28;45387;-70
2022/07/12 17:04:30;;;;;;;;;4.00;3.00;;;;;33.96;17.74;101670.56;5048122;28;46396;-70
2022/07/12 17:06:58;;;;;;;;;3.00;2.20;;;;;33.96;18.23;101668.72;5054929;28;45399;-69
2022/07/12 17:09:24;;;;;;;;;3.20;3.20;;;;;33.96;17.77;101668.72;5054564;28;45400;-69
2022/07/12 17:11:50;;;;;;;;;2.75;2.75;;;;;33.76;17.61;101645.88;5038064;28;45453;-70